createdAt,value
2022-09-02T00:00:56.376Z,265.02
2022-09-02T00:03:23.041Z,260.98
2022-09-02T00:05:51.416Z,266.52
2022-09-02T00:08:17.795Z,266.77
2022-09-02T00:10:44.202Z,253.77
2022-09-02T00:13:10.609Z,255.75
2022-09-02T00:15:37.006Z,257.52
2022-09-02T00:18:03.325Z,248.32
2022-09-02T00:20:29.850Z,252.45
2022-09-02T00:22:56.156Z,247.27
2022-09-02T00:25:22.583Z,243.30
2022-09-02T00:27:48.974Z,248.65
2022-09-02T00:30:15.532Z,243.68
2022-09-02T00:32:41.876Z,242.05
2022-09-02T00:35:08.286Z,232.88
2022-09-02T00:37:34.677Z,226.38
2022-09-02T00:40:01.049Z,232.52
2022-09-02T00:42:27.506Z,233.07
2022-09-02T00:44:53.840Z,224.73
2022-09-02T00:47:21.570Z,222.07
2022-09-02T00:49:47.985Z,214.20
2022-09-02T00:52:14.489Z,220.48
2022-09-02T00:54:40.936Z,216.10
2022-09-02T00:57:07.213Z,210.82
2022-09-02T00:59:33.514Z,219.45
2022-09-02T01:02:00.053Z,214.38
2022-09-02T01:04:26.850Z,206.82
2022-09-02T01:06:53.373Z,207.20
2022-09-02T01:09:19.726Z,209.57
2022-09-02T01:11:46.057Z,198.75
2022-09-02T01:14:12.419Z,201.85
2022-09-02T01:16:38.875Z,195.35
2022-09-02T01:19:08.512Z,190.43
2022-09-02T01:21:37.793Z,189.60
2022-09-02T01:24:04.102Z,194.98
2022-09-02T01:26:30.487Z,194.20
2022-09-02T01:28:56.953Z,194.15
2022-09-02T01:31:23.568Z,186.90
2022-09-02T01:33:49.935Z,181.40
2022-09-02T01:36:17.145Z,182.70
2022-09-02T01:38:43.801Z,174.80
2022-09-02T01:41:10.216Z,176.38
2022-09-02T01:43:37.010Z,177.95
2022-09-02T01:46:03.348Z,181.77
2022-09-02T01:48:29.949Z,172.32
2022-09-02T01:50:56.363Z,166.23
2022-09-02T01:53:22.906Z,175.80
2022-09-02T01:55:49.626Z,170.98
2022-09-02T01:58:15.935Z,165.05
2022-09-02T02:00:42.458Z,162.82
2022-09-02T02:03:08.949Z,162.25
2022-09-02T02:05:36.051Z,160.40
2022-09-02T02:08:02.406Z,154.10
2022-09-02T02:10:30.256Z,154.80
2022-09-02T02:12:56.616Z,153.70
2022-09-02T02:17:49.581Z,145.73
2022-09-02T02:20:16.056Z,148.77
2022-09-02T02:22:42.637Z,146.60
2022-09-02T02:25:09.028Z,145.50
2022-09-02T02:27:35.447Z,147.80
2022-09-02T02:30:04.188Z,142.50
2022-09-02T02:32:30.814Z,143.88
2022-09-02T02:34:57.137Z,140.68
2022-09-02T02:37:25.656Z,140.05
2022-09-02T02:39:52.095Z,137.48
2022-09-02T02:42:18.451Z,137.45
2022-09-02T02:44:44.770Z,131.48
2022-09-02T02:47:11.186Z,133.50
2022-09-02T02:49:37.677Z,132.10
2022-09-02T02:52:04.151Z,127.30
2022-09-02T02:54:34.962Z,125.85
2022-09-02T02:57:01.889Z,122.50
2022-09-02T02:59:29.829Z,127.50
2022-09-02T03:01:56.385Z,124.10
2022-09-02T03:04:22.918Z,123.47
2022-09-02T03:06:49.303Z,119.00
2022-09-02T03:09:15.665Z,115.47
2022-09-02T03:11:42.041Z,118.63
2022-09-02T03:14:08.446Z,118.88
2022-09-02T03:16:34.991Z,113.32
2022-09-02T03:19:01.336Z,111.25
2022-09-02T03:21:27.768Z,111.65
2022-09-02T03:23:54.279Z,112.85
2022-09-02T03:26:24.217Z,110.10
2022-09-02T03:28:50.567Z,110.50
2022-09-02T03:31:16.950Z,107.75
2022-09-02T03:33:43.660Z,106.95
2022-09-02T03:36:10.008Z,107.53
2022-09-02T03:38:36.379Z,106.63
2022-09-02T03:41:02.728Z,104.13
2022-09-02T03:43:29.317Z,102.60
2022-09-02T03:45:55.759Z,103.55
2022-09-02T03:48:22.215Z,101.50
2022-09-02T03:50:48.796Z,99.85
2022-09-02T03:53:19.572Z,100.20
2022-09-02T03:55:46.629Z,99.20
2022-09-02T03:58:15.752Z,97.63
2022-09-02T04:00:42.808Z,96.05
2022-09-02T04:03:09.286Z,97.32
2022-09-02T04:05:36.153Z,95.32
2022-09-02T04:08:02.509Z,92.05
2022-09-02T04:10:29.077Z,92.60
2022-09-02T04:12:55.806Z,93.78
2022-09-02T04:15:22.201Z,90.93
2022-09-02T04:17:48.546Z,88.57
2022-09-02T04:20:15.147Z,86.88
2022-09-02T04:22:41.620Z,89.70
2022-09-02T04:25:08.019Z,86.65
2022-09-02T04:27:34.401Z,85.93
2022-09-02T04:30:00.781Z,83.45
2022-09-02T04:32:27.136Z,84.68
2022-09-02T04:34:53.660Z,84.32
2022-09-02T04:37:20.061Z,87.82
2022-09-02T04:39:46.446Z,84.55
2022-09-02T04:42:12.860Z,81.47
2022-09-02T04:44:39.223Z,80.97
2022-09-02T04:47:05.541Z,80.10
2022-09-02T04:49:31.900Z,79.07
2022-09-02T04:51:58.310Z,79.88
2022-09-02T04:54:24.793Z,77.90
2022-09-02T04:56:51.269Z,77.25
2022-09-02T04:59:17.604Z,75.18
2022-09-02T05:01:44.159Z,74.90
2022-09-02T05:04:11.258Z,71.25
2022-09-02T05:06:41.900Z,70.78
2022-09-02T05:09:10.316Z,71.22
2022-09-02T05:11:36.597Z,71.15
2022-09-02T05:14:03.029Z,69.78
2022-09-02T05:16:29.448Z,68.93
2022-09-02T05:18:55.769Z,69.57
2022-09-02T05:21:22.077Z,69.38
2022-09-02T05:23:48.633Z,67.53
2022-09-02T05:26:14.939Z,62.38
2022-09-02T05:28:41.269Z,47.33
2022-09-02T05:31:07.777Z,42.20
2022-09-02T05:33:34.274Z,35.38
2022-09-02T05:36:00.610Z,33.95
2022-09-02T05:38:26.918Z,42.40
2022-09-02T05:40:53.323Z,44.67
2022-09-02T05:43:19.696Z,43.40
2022-09-02T05:45:46.087Z,43.72
2022-09-02T05:48:12.637Z,41.67
2022-09-02T05:50:41.411Z,40.00
2022-09-02T05:53:11.110Z,39.63
2022-09-02T05:55:41.797Z,38.05
2022-09-02T05:58:08.269Z,38.45
2022-09-02T06:00:34.621Z,37.83
2022-09-02T06:03:01.073Z,24.38
2022-09-02T06:05:27.456Z,13.15
2022-09-02T06:07:53.773Z,11.38
2022-09-02T06:10:23.668Z,9.30
2022-09-02T06:12:50.198Z,9.50
2022-09-02T06:15:16.593Z,8.70
2022-09-02T06:17:43.150Z,10.02
2022-09-02T06:20:10.370Z,9.77
2022-09-02T06:22:39.079Z,10.77
2022-09-02T06:25:06.667Z,10.82
2022-09-02T06:27:33.077Z,10.43
2022-09-02T06:29:59.454Z,11.10
2022-09-02T06:32:25.719Z,11.02
2022-09-02T06:34:52.019Z,11.73
2022-09-02T06:37:18.437Z,11.10
2022-09-02T06:39:44.795Z,11.77
2022-09-02T06:42:11.129Z,10.95
2022-09-02T06:44:37.634Z,11.20
2022-09-02T06:47:03.968Z,11.10
2022-09-02T06:49:30.347Z,11.95
2022-09-02T06:51:57.802Z,11.27
2022-09-02T06:54:24.193Z,10.85
2022-09-02T06:56:50.549Z,11.23
2022-09-02T06:59:16.825Z,10.55
2022-09-02T07:01:43.597Z,11.55
2022-09-02T07:04:10.036Z,11.55
2022-09-02T07:06:36.457Z,10.27
2022-09-02T07:09:02.798Z,10.55
2022-09-02T07:11:29.176Z,9.80
2022-09-02T07:13:55.555Z,10.73
2022-09-02T07:16:26.686Z,10.85
2022-09-02T07:18:53.494Z,10.27
2022-09-02T07:21:19.921Z,10.73
2022-09-02T07:23:46.433Z,9.80
2022-09-02T07:26:12.806Z,9.85
2022-09-02T07:28:39.192Z,9.65
2022-09-02T07:31:05.741Z,10.13
2022-09-02T07:33:32.291Z,9.80
2022-09-02T07:35:58.653Z,9.88
2022-09-02T07:38:24.989Z,10.18
2022-09-02T07:40:56.812Z,9.27
2022-09-02T07:43:23.864Z,10.50
2022-09-02T07:45:50.467Z,9.77
2022-09-02T07:48:17.186Z,9.85
2022-09-02T07:50:43.697Z,10.25
2022-09-02T07:53:10.005Z,9.27
2022-09-02T07:55:36.443Z,8.80
2022-09-02T07:58:03.112Z,8.75
2022-09-02T08:00:29.885Z,8.35
2022-09-02T08:02:56.399Z,8.75
2022-09-02T08:05:22.849Z,8.68
2022-09-02T08:07:49.181Z,8.73
2022-09-02T08:10:15.490Z,8.02
2022-09-02T08:12:41.901Z,8.35
2022-09-02T08:15:08.292Z,8.15
2022-09-02T08:17:34.746Z,8.07
2022-09-02T08:20:02.085Z,8.23
2022-09-02T08:22:29.018Z,7.47
2022-09-02T08:24:55.806Z,6.80
2022-09-02T08:27:22.229Z,7.32
2022-09-02T08:29:48.593Z,7.40
2022-09-02T08:32:15.265Z,7.50
2022-09-02T08:34:41.737Z,7.05
2022-09-02T08:37:08.181Z,6.95
2022-09-02T08:39:34.593Z,7.00
2022-09-02T08:44:28.517Z,6.45
2022-09-02T08:46:55.023Z,6.85
2022-09-02T08:49:21.373Z,6.20
2022-09-02T08:51:47.645Z,6.32
2022-09-02T08:54:19.152Z,5.57
2022-09-02T08:56:45.586Z,5.65
2022-09-02T08:59:11.851Z,5.45
2022-09-02T09:01:38.192Z,5.32
2022-09-02T09:04:04.657Z,5.45
2022-09-02T09:06:30.970Z,5.30
2022-09-02T09:08:57.465Z,4.63
2022-09-02T09:11:24.032Z,5.60
2022-09-02T09:13:50.361Z,5.30
2022-09-02T09:16:17.159Z,5.45
2022-09-02T09:18:43.674Z,5.85
2022-09-02T09:21:10.500Z,4.82
2022-09-02T09:23:37.738Z,4.72
2022-09-02T09:26:04.053Z,5.75
2022-09-02T09:28:30.478Z,4.35
2022-09-02T09:30:56.906Z,3.80
2022-09-02T09:33:23.707Z,3.58
2022-09-02T09:35:50.115Z,3.42
2022-09-02T09:38:19.783Z,2.75
2022-09-02T09:40:46.459Z,2.78
2022-09-02T09:43:15.198Z,2.80
2022-09-02T09:45:42.133Z,3.15
2022-09-02T09:48:08.495Z,3.70
2022-09-02T09:50:34.850Z,3.80
2022-09-02T09:53:01.146Z,3.28
2022-09-02T09:55:27.534Z,3.78
2022-09-02T09:57:53.975Z,4.05
2022-09-02T10:00:20.362Z,4.03
2022-09-02T10:02:46.750Z,3.63
2022-09-02T10:05:13.080Z,3.30
2022-09-02T10:07:39.641Z,3.65
2022-09-02T10:10:09.068Z,3.17
2022-09-02T10:12:35.538Z,3.28
2022-09-02T10:15:01.964Z,2.95
2022-09-02T10:17:28.461Z,3.30
2022-09-02T10:19:54.910Z,3.13
2022-09-02T10:22:21.459Z,3.22
2022-09-02T10:24:47.753Z,3.10
2022-09-02T10:27:14.181Z,2.90
2022-09-02T10:29:40.555Z,3.50
2022-09-02T10:32:06.948Z,3.15
2022-09-02T10:34:33.291Z,3.17
2022-09-02T10:36:59.662Z,2.92
2022-09-02T10:39:26.082Z,3.17
2022-09-02T10:41:52.497Z,3.55
2022-09-02T10:44:19.138Z,2.70
2022-09-02T10:46:45.752Z,2.95
2022-09-02T10:49:12.161Z,3.15
2022-09-02T10:51:38.514Z,2.90
2022-09-02T10:54:04.933Z,2.63
2022-09-02T10:56:31.369Z,3.38
2022-09-02T10:58:57.733Z,3.58
2022-09-02T11:01:24.163Z,2.88
2022-09-02T11:03:51.453Z,2.80
2022-09-02T11:06:17.849Z,3.10
2022-09-02T11:08:44.284Z,3.20
2022-09-02T11:11:10.694Z,2.75
2022-09-02T11:13:37.254Z,2.70
2022-09-02T11:16:03.761Z,2.95
2022-09-02T11:18:30.221Z,2.85
2022-09-02T11:20:56.537Z,2.70
2022-09-02T11:23:22.980Z,2.50
2022-09-02T11:25:51.173Z,2.45
2022-09-02T11:28:17.694Z,2.67
2022-09-02T11:30:47.342Z,2.30
2022-09-02T11:33:15.663Z,2.33
2022-09-02T11:35:43.690Z,2.13
2022-09-02T11:38:10.032Z,2.22
2022-09-02T11:40:36.802Z,2.10
2022-09-02T11:43:05.436Z,6.13
2022-09-02T11:45:32.082Z,19.02
2022-09-02T11:47:58.533Z,38.72
2022-09-02T11:50:25.173Z,37.30
2022-09-02T11:52:53.972Z,33.00
2022-09-02T11:55:20.660Z,31.23
2022-09-02T11:57:47.172Z,27.15
2022-09-02T12:00:13.857Z,23.45
2022-09-02T12:02:40.750Z,20.27
2022-09-02T12:05:08.538Z,16.88
2022-09-02T12:07:35.561Z,15.85
2022-09-02T12:10:01.981Z,13.65
2022-09-02T12:12:28.732Z,10.65
2022-09-02T12:14:55.710Z,9.75
2022-09-02T12:17:22.298Z,10.25
2022-09-02T12:19:48.929Z,26.65
2022-09-02T12:22:15.465Z,48.72
2022-09-02T12:24:41.846Z,59.03
2022-09-02T12:27:08.199Z,115.22
2022-09-02T12:29:34.585Z,75.07
2022-09-02T12:32:00.968Z,66.65
2022-09-02T12:34:27.437Z,59.20
2022-09-02T12:36:53.776Z,51.58
2022-09-02T12:39:20.293Z,42.83
2022-09-02T12:41:46.947Z,34.72
2022-09-02T12:44:14.279Z,12.98
2022-09-02T12:46:40.977Z,16.17
2022-09-02T12:49:07.506Z,15.20
2022-09-02T12:51:33.809Z,13.77
2022-09-02T12:54:02.528Z,13.30
2022-09-02T12:56:29.098Z,12.80
2022-09-02T12:59:00.128Z,11.30
2022-09-02T13:01:28.339Z,10.93
2022-09-02T13:03:54.940Z,10.27
2022-09-02T13:06:21.364Z,9.10
2022-09-02T13:08:48.709Z,9.63
2022-09-02T13:11:15.055Z,9.52
2022-09-02T13:13:41.571Z,9.00
2022-09-02T13:16:08.181Z,9.02
2022-09-02T13:18:44.843Z,8.25
2022-09-02T13:21:11.288Z,8.77
2022-09-02T13:23:37.607Z,8.65
2022-09-02T13:26:03.992Z,8.68
2022-09-02T13:28:30.504Z,7.82
2022-09-02T13:30:56.994Z,7.13
2022-09-02T13:33:23.431Z,7.60
2022-09-02T13:35:49.970Z,7.43
2022-09-02T13:38:18.583Z,7.45
2022-09-02T13:40:47.378Z,7.63
2022-09-02T13:43:13.738Z,6.90
2022-09-02T13:45:40.561Z,7.03
2022-09-02T13:48:06.870Z,7.30
2022-09-02T13:50:33.301Z,7.38
2022-09-02T13:55:46.255Z,6.72
2022-09-02T13:58:12.644Z,6.68
2022-09-02T14:00:39.191Z,6.50
2022-09-02T14:03:06.269Z,6.32
2022-09-02T14:05:32.911Z,6.20
2022-09-02T14:07:59.314Z,6.13
2022-09-02T14:10:26.193Z,5.53
2022-09-02T14:12:52.830Z,6.03
2022-09-02T14:15:19.176Z,5.13
2022-09-02T14:17:45.679Z,5.78
2022-09-02T14:20:12.262Z,5.30
2022-09-02T14:22:38.586Z,5.70
2022-09-02T14:25:05.055Z,5.55
2022-09-02T14:27:31.510Z,5.25
2022-09-02T14:29:57.952Z,5.88
2022-09-02T14:32:24.456Z,4.93
2022-09-02T14:34:50.979Z,4.43
2022-09-02T14:37:17.332Z,4.38
2022-09-02T14:39:43.985Z,4.40
2022-09-02T14:42:10.404Z,4.20
2022-09-02T14:44:36.873Z,4.20
2022-09-02T14:47:03.187Z,4.43
2022-09-02T14:49:29.966Z,4.10
2022-09-02T14:51:56.392Z,4.28
2022-09-02T14:54:22.856Z,4.00
2022-09-02T14:56:49.186Z,3.70
2022-09-02T14:59:15.496Z,3.83
2022-09-02T15:01:42.086Z,3.63
2022-09-02T15:04:08.597Z,3.67
2022-09-02T15:06:35.016Z,3.13
2022-09-02T15:09:01.589Z,3.65
2022-09-02T15:11:27.878Z,3.58
2022-09-02T15:13:54.261Z,3.97
2022-09-02T15:16:20.566Z,3.78
2022-09-02T15:18:46.978Z,3.70
2022-09-02T15:21:13.412Z,3.28
2022-09-02T15:23:41.240Z,3.58
2022-09-02T15:26:07.690Z,3.17
2022-09-02T15:28:34.106Z,3.28
2022-09-02T15:31:00.663Z,3.50
2022-09-02T15:33:27.097Z,3.05
2022-09-02T15:35:53.450Z,3.13
2022-09-02T15:38:19.890Z,3.50
2022-09-02T15:40:46.352Z,3.35
2022-09-02T15:43:12.722Z,2.92
2022-09-02T15:45:39.023Z,3.22
2022-09-02T15:48:05.433Z,3.03
2022-09-02T15:50:32.011Z,3.20
2022-09-02T15:52:58.529Z,2.92
2022-09-02T15:55:29.526Z,3.10
2022-09-02T15:57:56.171Z,2.97
2022-09-02T16:00:22.500Z,2.97
2022-09-02T16:02:48.961Z,3.00
2022-09-02T16:05:15.914Z,2.92
2022-09-02T16:07:42.301Z,2.90
2022-09-02T16:10:09.458Z,2.70
2022-09-02T16:12:35.800Z,2.63
2022-09-02T16:15:02.272Z,2.97
2022-09-02T16:17:29.285Z,3.15
2022-09-02T16:19:55.924Z,2.47
2022-09-02T16:22:22.610Z,2.40
2022-09-02T16:24:48.970Z,2.00
2022-09-02T16:27:15.312Z,2.47
2022-09-02T16:29:41.647Z,2.25
2022-09-02T16:32:24.513Z,2.00
2022-09-02T16:34:55.412Z,1.90
2022-09-02T16:37:21.706Z,1.90
2022-09-02T16:39:48.048Z,8.80
2022-09-02T16:42:14.460Z,74.05
2022-09-02T16:44:40.821Z,17.42
2022-09-02T16:47:07.496Z,2.40
2022-09-02T16:49:34.074Z,1.50
2022-09-02T16:52:00.476Z,1.33
2022-09-02T16:54:31.268Z,1.13
2022-09-02T16:56:58.759Z,1.05
2022-09-02T16:59:25.190Z,1.20
2022-09-02T17:01:51.763Z,1.00
2022-09-02T17:04:18.204Z,1.30
2022-09-02T17:06:44.577Z,1.10
2022-09-02T17:09:10.878Z,2.80
2022-09-02T17:11:37.252Z,10.95
2022-09-02T17:14:03.716Z,4.70
2022-09-02T17:16:30.056Z,2.58
2022-09-02T17:18:56.592Z,2.45
2022-09-02T17:21:22.981Z,2.35
2022-09-02T17:23:49.525Z,2.25
2022-09-02T17:26:15.842Z,24.02
2022-09-02T17:28:42.277Z,143.13
2022-09-02T17:31:08.831Z,166.52
2022-09-02T17:33:35.307Z,65.07
2022-09-02T17:36:01.665Z,38.55
2022-09-02T17:38:28.037Z,15.68
2022-09-02T17:40:54.641Z,9.07
2022-09-02T17:43:21.090Z,6.80
2022-09-02T17:45:47.473Z,4.50
2022-09-02T17:48:35.755Z,3.55
2022-09-02T17:51:00.771Z,2.55
2022-09-02T17:53:30.068Z,2.60
2022-09-02T17:55:56.622Z,3.22
2022-09-02T17:58:23.113Z,4.70
2022-09-02T18:00:49.508Z,4.05
2022-09-02T18:03:20.261Z,3.92
2022-09-02T18:05:48.600Z,3.55
2022-09-02T18:08:14.912Z,2.80
2022-09-02T18:10:41.279Z,1.90
2022-09-02T18:13:07.592Z,2.17
2022-09-02T18:15:34.005Z,1.92
2022-09-02T18:18:01.563Z,5.50
2022-09-02T18:20:28.233Z,7.30
2022-09-02T18:22:54.836Z,6.50
2022-09-02T18:25:21.185Z,5.10
2022-09-02T18:27:47.672Z,7.97
2022-09-02T18:30:17.114Z,9.13
2022-09-02T18:32:43.506Z,2.60
2022-09-02T18:35:09.886Z,2.38
2022-09-02T18:37:36.566Z,1.95
2022-09-02T18:40:03.481Z,1.60
2022-09-02T18:42:30.315Z,1.40
2022-09-02T18:44:56.617Z,1.52
2022-09-02T18:47:22.997Z,1.67
2022-09-02T18:49:49.565Z,1.73
2022-09-02T18:52:15.993Z,1.40
2022-09-02T18:54:42.333Z,2.05
2022-09-02T18:57:09.010Z,4.35
2022-09-02T18:59:35.416Z,11.68
2022-09-02T19:02:01.869Z,7.75
2022-09-02T19:04:29.559Z,7.53
2022-09-02T19:06:56.196Z,6.97
2022-09-02T19:09:22.640Z,5.30
2022-09-02T19:11:49.016Z,4.22
2022-09-02T19:14:15.695Z,2.60
2022-09-02T19:16:42.354Z,8.35
2022-09-02T19:19:08.819Z,9.73
2022-09-02T19:21:35.196Z,7.00
2022-09-02T19:24:01.569Z,7.30
2022-09-02T19:26:27.945Z,4.57
2022-09-02T19:28:54.256Z,3.50
2022-09-02T19:31:20.849Z,10.38
2022-09-02T19:33:47.456Z,11.18
2022-09-02T19:36:13.886Z,7.25
2022-09-02T19:38:40.209Z,5.53
2022-09-02T19:41:06.851Z,3.95
2022-09-02T19:43:33.222Z,2.40
2022-09-02T19:45:59.776Z,3.10
2022-09-02T19:48:26.346Z,5.28
2022-09-02T19:50:52.853Z,11.30
2022-09-02T19:53:19.241Z,8.57
2022-09-02T19:55:45.811Z,32.15
2022-09-02T19:58:12.097Z,47.83
2022-09-02T20:00:40.083Z,35.70
2022-09-02T20:03:06.487Z,63.08
2022-09-02T20:05:32.825Z,99.40
2022-09-02T20:07:59.292Z,122.32
2022-09-02T20:10:27.847Z,68.75
2022-09-02T20:12:54.650Z,63.75
2022-09-02T20:15:20.986Z,108.45
2022-09-02T20:17:47.619Z,139.27
2022-09-02T20:20:14.016Z,223.80
2022-09-02T20:22:40.622Z,304.85
2022-09-02T20:25:06.922Z,182.85
2022-09-02T20:27:33.437Z,154.90
2022-09-02T20:29:59.776Z,155.77
2022-09-02T20:32:26.258Z,159.65
2022-09-02T20:34:52.564Z,157.63
2022-09-02T20:37:19.305Z,165.63
2022-09-02T20:39:45.713Z,172.50
2022-09-02T20:42:12.158Z,177.18
2022-09-02T20:44:38.474Z,184.73
2022-09-02T20:47:04.982Z,182.35
2022-09-02T20:49:31.456Z,176.00
2022-09-02T20:51:58.277Z,170.32
2022-09-02T20:54:24.613Z,170.02
2022-09-02T20:56:50.960Z,169.10
2022-09-02T20:59:17.408Z,168.57
2022-09-02T21:01:43.806Z,163.07
2022-09-02T21:04:10.309Z,159.43
2022-09-02T21:06:36.794Z,166.77
2022-09-02T21:09:03.753Z,119.68
2022-09-02T21:11:30.338Z,45.63
2022-09-02T21:13:56.663Z,40.67
2022-09-02T21:16:23.011Z,33.85
2022-09-02T21:18:49.469Z,31.27
2022-09-02T21:21:15.946Z,32.40
2022-09-02T21:23:42.542Z,32.13
2022-09-02T21:26:08.933Z,45.28
2022-09-02T21:28:35.695Z,50.17
2022-09-02T21:31:02.170Z,57.42
2022-09-02T21:33:28.541Z,59.60
2022-09-02T21:35:55.010Z,67.32
2022-09-02T21:38:21.738Z,64.53
2022-09-02T21:40:48.347Z,66.80
2022-09-02T21:43:14.678Z,69.72
2022-09-02T21:45:41.126Z,71.20
2022-09-02T21:48:07.498Z,70.53
2022-09-02T21:50:33.812Z,67.68
2022-09-02T21:53:00.228Z,69.10
2022-09-02T21:55:26.645Z,68.40
2022-09-02T21:57:54.664Z,68.40
2022-09-02T22:00:21.993Z,64.28
2022-09-02T22:02:48.532Z,65.40
2022-09-02T22:05:14.910Z,64.93
2022-09-02T22:07:41.877Z,62.92
2022-09-02T22:10:08.193Z,61.85
2022-09-02T22:12:34.617Z,61.78
2022-09-02T22:15:01.169Z,60.53
2022-09-02T22:17:27.736Z,60.30
2022-09-02T22:19:54.976Z,61.90
2022-09-02T22:22:21.334Z,57.47
2022-09-02T22:24:47.782Z,57.67
2022-09-02T22:27:14.101Z,60.65
2022-09-02T22:29:40.473Z,57.53
2022-09-02T22:32:06.823Z,56.30
2022-09-02T22:34:33.177Z,58.00
2022-09-02T22:36:59.540Z,55.05
2022-09-02T22:39:26.093Z,54.53
2022-09-02T22:41:52.546Z,55.08
2022-09-02T22:44:18.870Z,54.85
2022-09-02T22:46:45.445Z,53.65
2022-09-02T22:49:11.829Z,56.28
2022-09-02T22:51:38.686Z,55.10
2022-09-02T22:54:05.017Z,50.90
2022-09-02T22:56:31.544Z,47.95
2022-09-02T22:58:57.952Z,48.65
2022-09-02T23:01:24.567Z,44.88
2022-09-02T23:03:51.399Z,50.42
2022-09-02T23:06:17.866Z,45.88
2022-09-02T23:08:44.189Z,47.75
2022-09-02T23:11:10.950Z,48.55
2022-09-02T23:13:37.304Z,41.55
2022-09-02T23:16:03.795Z,37.28
2022-09-02T23:18:31.208Z,37.88
2022-09-02T23:20:57.540Z,34.00
2022-09-02T23:23:24.001Z,35.00
2022-09-02T23:25:51.181Z,37.05
2022-09-02T23:28:17.592Z,39.97
2022-09-02T23:30:43.953Z,37.42
2022-09-02T23:33:15.378Z,32.50
2022-09-02T23:35:42.088Z,38.40
2022-09-02T23:38:08.476Z,33.40
2022-09-02T23:40:34.848Z,32.67
2022-09-02T23:43:01.289Z,36.25
2022-09-02T23:45:27.975Z,36.33
2022-09-02T23:47:54.345Z,37.65
2022-09-02T23:50:20.793Z,37.22
2022-09-02T23:52:47.184Z,34.88
2022-09-02T23:55:13.599Z,33.33
2022-09-02T23:57:39.996Z,36.75
